sensor_id;sensor_type;location;lat;lon;timestamp;P1;durP1;ratioP1;P2;durP2;ratioP2
8887;SDS011;4480;52.370;9.748;2022-08-27T00:00:04;6.90;;;4.53;;
8887;SDS011;4480;52.370;9.748;2022-08-27T00:02:34;11.30;;;5.30;;
8887;SDS011;4480;52.370;9.748;2022-08-27T00:05:03;10.67;;;4.87;;
8887;SDS011;4480;52.370;9.748;2022-08-27T00:07:30;10.00;;;5.13;;
8887;SDS011;4480;52.370;9.748;2022-08-27T00:09:58;8.37;;;5.10;;
8887;SDS011;4480;52.370;9.748;2022-08-27T00:12:25;8.13;;;4.83;;
8887;SDS011;4480;52.370;9.748;2022-08-27T00:14:52;15.83;;;6.30;;
8887;SDS011;4480;52.370;9.748;2022-08-27T00:17:19;9.50;;;4.90;;
8887;SDS011;4480;52.370;9.748;2022-08-27T00:19:47;11.97;;;4.93;;
8887;SDS011;4480;52.370;9.748;2022-08-27T00:22:15;8.90;;;4.47;;
8887;SDS011;4480;52.370;9.748;2022-08-27T00:24:42;13.77;;;5.47;;
8887;SDS011;4480;52.370;9.748;2022-08-27T00:27:10;10.53;;;5.37;;
8887;SDS011;4480;52.370;9.748;2022-08-27T00:29:37;10.43;;;4.33;;
8887;SDS011;4480;52.370;9.748;2022-08-27T00:32:04;9.33;;;5.53;;
8887;SDS011;4480;52.370;9.748;2022-08-27T00:34:33;9.43;;;5.37;;
8887;SDS011;4480;52.370;9.748;2022-08-27T00:37:00;10.43;;;4.40;;
8887;SDS011;4480;52.370;9.748;2022-08-27T00:39:29;10.10;;;5.67;;
8887;SDS011;4480;52.370;9.748;2022-08-27T00:41:56;13.23;;;5.37;;
8887;SDS011;4480;52.370;9.748;2022-08-27T00:44:24;10.97;;;5.27;;
8887;SDS011;4480;52.370;9.748;2022-08-27T00:46:52;9.40;;;5.23;;
8887;SDS011;4480;52.370;9.748;2022-08-27T00:49:23;12.30;;;4.73;;
8887;SDS011;4480;52.370;9.748;2022-08-27T00:51:55;13.60;;;4.70;;
8887;SDS011;4480;52.370;9.748;2022-08-27T00:54:24;10.60;;;4.40;;
8887;SDS011;4480;52.370;9.748;2022-08-27T00:56:54;11.43;;;4.37;;
8887;SDS011;4480;52.370;9.748;2022-08-27T00:59:24;10.97;;;4.30;;
8887;SDS011;4480;52.370;9.748;2022-08-27T01:01:55;10.53;;;5.83;;
8887;SDS011;4480;52.370;9.748;2022-08-27T01:04:40;10.20;;;3.93;;
8887;SDS011;4480;52.370;9.748;2022-08-27T01:07:10;7.77;;;4.57;;
8887;SDS011;4480;52.370;9.748;2022-08-27T01:09:38;10.30;;;5.40;;
8887;SDS011;4480;52.370;9.748;2022-08-27T01:12:09;14.03;;;5.63;;
8887;SDS011;4480;52.370;9.748;2022-08-27T01:14:36;7.60;;;4.60;;
8887;SDS011;4480;52.370;9.748;2022-08-27T01:17:05;8.93;;;4.57;;
8887;SDS011;4480;52.370;9.748;2022-08-27T01:19:35;14.53;;;5.00;;
8887;SDS011;4480;52.370;9.748;2022-08-27T01:22:08;13.33;;;5.57;;
8887;SDS011;4480;52.370;9.748;2022-08-27T01:24:42;12.80;;;5.43;;
8887;SDS011;4480;52.370;9.748;2022-08-27T01:27:12;10.10;;;4.77;;
8887;SDS011;4480;52.370;9.748;2022-08-27T01:29:43;9.50;;;5.70;;
8887;SDS011;4480;52.370;9.748;2022-08-27T01:32:12;10.13;;;4.87;;
8887;SDS011;4480;52.370;9.748;2022-08-27T01:34:41;10.53;;;4.60;;
8887;SDS011;4480;52.370;9.748;2022-08-27T01:37:09;10.50;;;5.30;;
8887;SDS011;4480;52.370;9.748;2022-08-27T01:39:37;7.57;;;5.00;;
8887;SDS011;4480;52.370;9.748;2022-08-27T01:42:08;8.50;;;4.50;;
8887;SDS011;4480;52.370;9.748;2022-08-27T01:44:41;13.40;;;5.43;;
8887;SDS011;4480;52.370;9.748;2022-08-27T01:47:11;12.43;;;5.50;;
8887;SDS011;4480;52.370;9.748;2022-08-27T01:49:38;10.73;;;5.40;;
8887;SDS011;4480;52.370;9.748;2022-08-27T01:52:05;11.63;;;5.30;;
8887;SDS011;4480;52.370;9.748;2022-08-27T01:54:33;11.23;;;5.33;;
8887;SDS011;4480;52.370;9.748;2022-08-27T01:57:00;16.83;;;5.77;;
8887;SDS011;4480;52.370;9.748;2022-08-27T01:59:29;11.80;;;5.87;;
8887;SDS011;4480;52.370;9.748;2022-08-27T02:01:57;8.57;;;5.83;;
8887;SDS011;4480;52.370;9.748;2022-08-27T02:04:25;7.27;;;5.33;;
8887;SDS011;4480;52.370;9.748;2022-08-27T02:06:53;10.37;;;6.10;;
8887;SDS011;4480;52.370;9.748;2022-08-27T02:09:20;12.40;;;6.40;;
8887;SDS011;4480;52.370;9.748;2022-08-27T02:11:47;8.80;;;5.93;;
8887;SDS011;4480;52.370;9.748;2022-08-27T02:14:15;13.63;;;5.53;;
8887;SDS011;4480;52.370;9.748;2022-08-27T02:16:43;11.03;;;6.23;;
8887;SDS011;4480;52.370;9.748;2022-08-27T02:19:10;16.80;;;8.00;;
8887;SDS011;4480;52.370;9.748;2022-08-27T02:21:38;10.47;;;6.70;;
8887;SDS011;4480;52.370;9.748;2022-08-27T02:24:05;7.37;;;5.50;;
8887;SDS011;4480;52.370;9.748;2022-08-27T02:26:32;11.17;;;5.40;;
8887;SDS011;4480;52.370;9.748;2022-08-27T02:28:59;10.87;;;6.07;;
8887;SDS011;4480;52.370;9.748;2022-08-27T02:31:27;9.97;;;5.10;;
8887;SDS011;4480;52.370;9.748;2022-08-27T02:33:55;15.77;;;6.50;;
8887;SDS011;4480;52.370;9.748;2022-08-27T02:36:23;10.30;;;6.50;;
8887;SDS011;4480;52.370;9.748;2022-08-27T02:38:50;11.50;;;6.13;;
8887;SDS011;4480;52.370;9.748;2022-08-27T02:41:17;12.47;;;6.30;;
8887;SDS011;4480;52.370;9.748;2022-08-27T02:43:44;8.80;;;6.67;;
8887;SDS011;4480;52.370;9.748;2022-08-27T02:46:12;10.17;;;6.30;;
8887;SDS011;4480;52.370;9.748;2022-08-27T02:48:39;9.83;;;6.00;;
8887;SDS011;4480;52.370;9.748;2022-08-27T02:51:09;12.90;;;5.70;;
8887;SDS011;4480;52.370;9.748;2022-08-27T02:53:36;8.10;;;6.17;;
8887;SDS011;4480;52.370;9.748;2022-08-27T02:56:04;12.53;;;6.40;;
8887;SDS011;4480;52.370;9.748;2022-08-27T02:58:32;8.93;;;6.17;;
8887;SDS011;4480;52.370;9.748;2022-08-27T03:00:59;12.17;;;6.67;;
8887;SDS011;4480;52.370;9.748;2022-08-27T03:03:27;9.40;;;6.50;;
8887;SDS011;4480;52.370;9.748;2022-08-27T03:05:54;14.60;;;6.10;;
8887;SDS011;4480;52.370;9.748;2022-08-27T03:08:24;7.13;;;5.90;;
8887;SDS011;4480;52.370;9.748;2022-08-27T03:10:52;6.60;;;5.00;;
8887;SDS011;4480;52.370;9.748;2022-08-27T03:13:19;8.60;;;6.57;;
8887;SDS011;4480;52.370;9.748;2022-08-27T03:15:47;7.30;;;5.30;;
8887;SDS011;4480;52.370;9.748;2022-08-27T03:18:14;11.53;;;5.43;;
8887;SDS011;4480;52.370;9.748;2022-08-27T03:20:44;10.27;;;6.40;;
8887;SDS011;4480;52.370;9.748;2022-08-27T03:23:14;11.23;;;5.03;;
8887;SDS011;4480;52.370;9.748;2022-08-27T03:25:44;7.33;;;5.10;;
8887;SDS011;4480;52.370;9.748;2022-08-27T03:28:15;9.90;;;6.00;;
8887;SDS011;4480;52.370;9.748;2022-08-27T03:30:46;13.20;;;5.30;;
8887;SDS011;4480;52.370;9.748;2022-08-27T03:33:14;10.70;;;5.43;;
8887;SDS011;4480;52.370;9.748;2022-08-27T03:35:42;10.30;;;5.23;;
8887;SDS011;4480;52.370;9.748;2022-08-27T03:38:09;9.60;;;5.10;;
8887;SDS011;4480;52.370;9.748;2022-08-27T03:40:36;13.63;;;5.70;;
8887;SDS011;4480;52.370;9.748;2022-08-27T03:43:05;8.27;;;4.80;;
8887;SDS011;4480;52.370;9.748;2022-08-27T03:45:32;10.00;;;4.73;;
8887;SDS011;4480;52.370;9.748;2022-08-27T03:47:59;12.37;;;4.97;;
8887;SDS011;4480;52.370;9.748;2022-08-27T03:50:26;15.70;;;5.53;;
8887;SDS011;4480;52.370;9.748;2022-08-27T03:52:53;7.90;;;4.63;;
8887;SDS011;4480;52.370;9.748;2022-08-27T03:55:21;15.80;;;4.90;;
8887;SDS011;4480;52.370;9.748;2022-08-27T03:57:48;5.53;;;4.30;;
8887;SDS011;4480;52.370;9.748;2022-08-27T04:00:17;12.30;;;4.63;;
8887;SDS011;4480;52.370;9.748;2022-08-27T04:02:44;6.97;;;4.63;;
8887;SDS011;4480;52.370;9.748;2022-08-27T04:05:12;7.70;;;4.33;;
8887;SDS011;4480;52.370;9.748;2022-08-27T04:10:08;8.77;;;4.50;;
8887;SDS011;4480;52.370;9.748;2022-08-27T04:12:37;4.83;;;4.30;;
8887;SDS011;4480;52.370;9.748;2022-08-27T04:15:05;17.40;;;4.87;;
8887;SDS011;4480;52.370;9.748;2022-08-27T04:17:34;18.13;;;4.90;;
8887;SDS011;4480;52.370;9.748;2022-08-27T04:20:03;8.53;;;3.97;;
8887;SDS011;4480;52.370;9.748;2022-08-27T04:22:31;6.77;;;3.97;;
8887;SDS011;4480;52.370;9.748;2022-08-27T04:24:59;9.80;;;5.10;;
8887;SDS011;4480;52.370;9.748;2022-08-27T04:27:28;9.60;;;4.37;;
8887;SDS011;4480;52.370;9.748;2022-08-27T04:29:56;4.73;;;3.87;;
8887;SDS011;4480;52.370;9.748;2022-08-27T04:32:26;10.50;;;3.70;;
8887;SDS011;4480;52.370;9.748;2022-08-27T04:34:54;5.90;;;4.00;;
8887;SDS011;4480;52.370;9.748;2022-08-27T04:37:23;7.00;;;4.10;;
8887;SDS011;4480;52.370;9.748;2022-08-27T04:39:51;8.30;;;4.57;;
8887;SDS011;4480;52.370;9.748;2022-08-27T04:42:18;10.00;;;3.70;;
8887;SDS011;4480;52.370;9.748;2022-08-27T04:44:47;3.50;;;3.20;;
8887;SDS011;4480;52.370;9.748;2022-08-27T04:47:14;9.80;;;4.80;;
8887;SDS011;4480;52.370;9.748;2022-08-27T04:49:41;6.77;;;4.13;;
8887;SDS011;4480;52.370;9.748;2022-08-27T04:52:09;9.10;;;4.37;;
8887;SDS011;4480;52.370;9.748;2022-08-27T04:54:36;6.30;;;3.50;;
8887;SDS011;4480;52.370;9.748;2022-08-27T04:57:04;7.67;;;3.63;;
8887;SDS011;4480;52.370;9.748;2022-08-27T04:59:33;8.83;;;4.30;;
8887;SDS011;4480;52.370;9.748;2022-08-27T05:02:03;7.40;;;3.77;;
8887;SDS011;4480;52.370;9.748;2022-08-27T05:04:33;8.03;;;4.00;;
8887;SDS011;4480;52.370;9.748;2022-08-27T05:07:04;8.30;;;4.10;;
8887;SDS011;4480;52.370;9.748;2022-08-27T05:09:32;6.20;;;4.20;;
8887;SDS011;4480;52.370;9.748;2022-08-27T05:11:59;9.10;;;4.80;;
8887;SDS011;4480;52.370;9.748;2022-08-27T05:14:27;8.53;;;4.67;;
8887;SDS011;4480;52.370;9.748;2022-08-27T05:16:56;13.30;;;4.77;;
8887;SDS011;4480;52.370;9.748;2022-08-27T05:19:26;12.40;;;5.93;;
8887;SDS011;4480;52.370;9.748;2022-08-27T05:21:53;11.37;;;5.47;;
8887;SDS011;4480;52.370;9.748;2022-08-27T05:24:22;10.10;;;4.40;;
8887;SDS011;4480;52.370;9.748;2022-08-27T05:26:50;7.50;;;4.03;;
8887;SDS011;4480;52.370;9.748;2022-08-27T05:29:17;7.73;;;4.37;;
8887;SDS011;4480;52.370;9.748;2022-08-27T05:31:44;8.83;;;5.23;;
8887;SDS011;4480;52.370;9.748;2022-08-27T05:34:13;8.60;;;4.30;;
8887;SDS011;4480;52.370;9.748;2022-08-27T05:36:42;7.87;;;4.87;;
8887;SDS011;4480;52.370;9.748;2022-08-27T05:39:12;12.93;;;5.07;;
8887;SDS011;4480;52.370;9.748;2022-08-27T05:41:40;11.80;;;5.00;;
8887;SDS011;4480;52.370;9.748;2022-08-27T05:44:10;12.70;;;5.47;;
8887;SDS011;4480;52.370;9.748;2022-08-27T05:46:39;7.00;;;4.80;;
8887;SDS011;4480;52.370;9.748;2022-08-27T05:49:06;13.73;;;4.80;;
8887;SDS011;4480;52.370;9.748;2022-08-27T05:51:34;10.13;;;4.60;;
8887;SDS011;4480;52.370;9.748;2022-08-27T05:54:04;10.57;;;4.67;;
8887;SDS011;4480;52.370;9.748;2022-08-27T05:56:35;8.30;;;4.67;;
8887;SDS011;4480;52.370;9.748;2022-08-27T05:59:03;6.80;;;4.90;;
8887;SDS011;4480;52.370;9.748;2022-08-27T06:01:49;8.53;;;5.50;;
8887;SDS011;4480;52.370;9.748;2022-08-27T06:04:18;10.70;;;4.70;;
8887;SDS011;4480;52.370;9.748;2022-08-27T06:06:46;8.87;;;4.97;;
8887;SDS011;4480;52.370;9.748;2022-08-27T06:09:16;8.33;;;3.87;;
8887;SDS011;4480;52.370;9.748;2022-08-27T06:11:45;13.43;;;4.37;;
8887;SDS011;4480;52.370;9.748;2022-08-27T06:14:12;5.33;;;4.00;;
8887;SDS011;4480;52.370;9.748;2022-08-27T06:16:40;7.63;;;4.80;;
8887;SDS011;4480;52.370;9.748;2022-08-27T06:19:08;8.10;;;4.40;;
8887;SDS011;4480;52.370;9.748;2022-08-27T06:21:36;7.60;;;4.07;;
8887;SDS011;4480;52.370;9.748;2022-08-27T06:24:04;8.80;;;4.00;;
8887;SDS011;4480;52.370;9.748;2022-08-27T06:26:34;5.90;;;3.50;;
8887;SDS011;4480;52.370;9.748;2022-08-27T06:29:02;5.87;;;3.10;;
8887;SDS011;4480;52.370;9.748;2022-08-27T06:31:30;10.50;;;3.23;;
8887;SDS011;4480;52.370;9.748;2022-08-27T06:34:00;6.33;;;3.40;;
8887;SDS011;4480;52.370;9.748;2022-08-27T06:36:28;8.07;;;3.63;;
8887;SDS011;4480;52.370;9.748;2022-08-27T06:38:56;9.10;;;3.93;;
8887;SDS011;4480;52.370;9.748;2022-08-27T06:41:24;8.87;;;3.40;;
8887;SDS011;4480;52.370;9.748;2022-08-27T06:43:54;6.00;;;3.80;;
8887;SDS011;4480;52.370;9.748;2022-08-27T06:46:23;9.53;;;3.53;;
8887;SDS011;4480;52.370;9.748;2022-08-27T06:48:52;5.83;;;4.10;;
8887;SDS011;4480;52.370;9.748;2022-08-27T06:51:21;6.57;;;3.50;;
8887;SDS011;4480;52.370;9.748;2022-08-27T06:53:50;8.43;;;3.77;;
8887;SDS011;4480;52.370;9.748;2022-08-27T06:56:19;7.67;;;3.77;;
8887;SDS011;4480;52.370;9.748;2022-08-27T06:58:46;8.40;;;4.10;;
8887;SDS011;4480;52.370;9.748;2022-08-27T07:01:19;11.97;;;4.50;;
8887;SDS011;4480;52.370;9.748;2022-08-27T07:03:48;13.80;;;5.07;;
8887;SDS011;4480;52.370;9.748;2022-08-27T07:06:16;7.40;;;4.30;;
8887;SDS011;4480;52.370;9.748;2022-08-27T07:08:43;6.40;;;3.70;;
8887;SDS011;4480;52.370;9.748;2022-08-27T07:11:12;12.20;;;4.33;;
8887;SDS011;4480;52.370;9.748;2022-08-27T07:13:40;7.63;;;3.50;;
8887;SDS011;4480;52.370;9.748;2022-08-27T07:16:08;5.90;;;4.10;;
8887;SDS011;4480;52.370;9.748;2022-08-27T07:18:39;9.30;;;4.13;;
8887;SDS011;4480;52.370;9.748;2022-08-27T07:21:07;9.83;;;4.47;;
8887;SDS011;4480;52.370;9.748;2022-08-27T07:23:35;6.50;;;3.33;;
8887;SDS011;4480;52.370;9.748;2022-08-27T07:26:05;9.10;;;3.90;;
8887;SDS011;4480;52.370;9.748;2022-08-27T07:28:33;14.83;;;4.60;;
8887;SDS011;4480;52.370;9.748;2022-08-27T07:31:00;7.33;;;3.50;;
8887;SDS011;4480;52.370;9.748;2022-08-27T07:33:27;8.23;;;3.90;;
8887;SDS011;4480;52.370;9.748;2022-08-27T07:35:56;7.57;;;3.67;;
8887;SDS011;4480;52.370;9.748;2022-08-27T07:38:24;5.53;;;3.33;;
8887;SDS011;4480;52.370;9.748;2022-08-27T07:40:51;6.37;;;2.83;;
8887;SDS011;4480;52.370;9.748;2022-08-27T07:43:18;6.63;;;3.40;;
8887;SDS011;4480;52.370;9.748;2022-08-27T07:46:03;5.17;;;3.30;;
8887;SDS011;4480;52.370;9.748;2022-08-27T07:48:30;7.57;;;3.60;;
8887;SDS011;4480;52.370;9.748;2022-08-27T07:51:00;8.57;;;3.23;;
8887;SDS011;4480;52.370;9.748;2022-08-27T07:53:29;9.30;;;3.13;;
8887;SDS011;4480;52.370;9.748;2022-08-27T07:56:00;7.60;;;3.43;;
8887;SDS011;4480;52.370;9.748;2022-08-27T07:58:28;7.33;;;2.53;;
8887;SDS011;4480;52.370;9.748;2022-08-27T08:00:55;7.63;;;3.30;;
8887;SDS011;4480;52.370;9.748;2022-08-27T08:03:23;5.40;;;2.40;;
8887;SDS011;4480;52.370;9.748;2022-08-27T08:05:50;4.10;;;2.63;;
8887;SDS011;4480;52.370;9.748;2022-08-27T08:08:19;6.50;;;3.40;;
8887;SDS011;4480;52.370;9.748;2022-08-27T08:10:48;7.23;;;3.30;;
8887;SDS011;4480;52.370;9.748;2022-08-27T08:13:16;10.87;;;2.80;;
8887;SDS011;4480;52.370;9.748;2022-08-27T08:15:45;5.97;;;3.00;;
8887;SDS011;4480;52.370;9.748;2022-08-27T08:18:13;5.43;;;2.60;;
8887;SDS011;4480;52.370;9.748;2022-08-27T08:20:40;9.77;;;3.00;;
8887;SDS011;4480;52.370;9.748;2022-08-27T08:23:08;6.17;;;2.30;;
8887;SDS011;4480;52.370;9.748;2022-08-27T08:25:36;5.20;;;2.53;;
8887;SDS011;4480;52.370;9.748;2022-08-27T08:28:03;10.50;;;3.13;;
8887;SDS011;4480;52.370;9.748;2022-08-27T08:30:31;6.80;;;2.70;;
8887;SDS011;4480;52.370;9.748;2022-08-27T08:32:58;5.77;;;2.57;;
8887;SDS011;4480;52.370;9.748;2022-08-27T08:35:25;5.87;;;2.83;;
8887;SDS011;4480;52.370;9.748;2022-08-27T08:37:53;6.60;;;3.23;;
8887;SDS011;4480;52.370;9.748;2022-08-27T08:40:23;7.20;;;2.80;;
8887;SDS011;4480;52.370;9.748;2022-08-27T08:42:55;4.20;;;2.80;;
8887;SDS011;4480;52.370;9.748;2022-08-27T08:45:26;5.83;;;2.67;;
8887;SDS011;4480;52.370;9.748;2022-08-27T08:47:57;7.80;;;2.60;;
8887;SDS011;4480;52.370;9.748;2022-08-27T08:50:32;7.17;;;3.07;;
8887;SDS011;4480;52.370;9.748;2022-08-27T08:53:06;6.00;;;2.47;;
8887;SDS011;4480;52.370;9.748;2022-08-27T08:55:40;7.10;;;3.10;;
8887;SDS011;4480;52.370;9.748;2022-08-27T08:58:15;8.77;;;3.93;;
8887;SDS011;4480;52.370;9.748;2022-08-27T09:00:50;14.43;;;3.63;;
8887;SDS011;4480;52.370;9.748;2022-08-27T09:03:20;4.60;;;3.07;;
8887;SDS011;4480;52.370;9.748;2022-08-27T09:05:48;8.90;;;3.10;;
8887;SDS011;4480;52.370;9.748;2022-08-27T09:08:21;5.37;;;3.17;;
8887;SDS011;4480;52.370;9.748;2022-08-27T09:10:56;6.23;;;3.03;;
8887;SDS011;4480;52.370;9.748;2022-08-27T09:13:32;4.83;;;3.13;;
8887;SDS011;4480;52.370;9.748;2022-08-27T09:16:04;6.77;;;2.77;;
8887;SDS011;4480;52.370;9.748;2022-08-27T09:18:32;5.63;;;3.20;;
8887;SDS011;4480;52.370;9.748;2022-08-27T09:21:05;7.93;;;3.13;;
8887;SDS011;4480;52.370;9.748;2022-08-27T09:23:38;5.23;;;3.43;;
8887;SDS011;4480;52.370;9.748;2022-08-27T09:26:18;8.57;;;3.13;;
8887;SDS011;4480;52.370;9.748;2022-08-27T09:28:54;6.37;;;3.33;;
8887;SDS011;4480;52.370;9.748;2022-08-27T09:31:40;6.77;;;2.93;;
8887;SDS011;4480;52.370;9.748;2022-08-27T09:34:08;6.70;;;3.57;;
8887;SDS011;4480;52.370;9.748;2022-08-27T09:36:44;5.60;;;2.90;;
8887;SDS011;4480;52.370;9.748;2022-08-27T09:39:17;10.03;;;3.13;;
8887;SDS011;4480;52.370;9.748;2022-08-27T09:41:46;7.53;;;3.43;;
8887;SDS011;4480;52.370;9.748;2022-08-27T09:44:17;7.73;;;3.03;;
8887;SDS011;4480;52.370;9.748;2022-08-27T09:46:50;7.80;;;3.83;;
8887;SDS011;4480;52.370;9.748;2022-08-27T09:49:22;3.23;;;2.90;;
8887;SDS011;4480;52.370;9.748;2022-08-27T09:51:49;4.10;;;2.67;;
8887;SDS011;4480;52.370;9.748;2022-08-27T09:57:08;7.27;;;3.10;;
8887;SDS011;4480;52.370;9.748;2022-08-27T09:59:39;8.23;;;3.50;;
8887;SDS011;4480;52.370;9.748;2022-08-27T10:02:16;10.40;;;3.47;;
8887;SDS011;4480;52.370;9.748;2022-08-27T10:04:46;6.50;;;3.60;;
8887;SDS011;4480;52.370;9.748;2022-08-27T10:07:18;5.70;;;2.80;;
8887;SDS011;4480;52.370;9.748;2022-08-27T10:09:59;6.00;;;2.90;;
8887;SDS011;4480;52.370;9.748;2022-08-27T10:12:37;8.00;;;3.47;;
8887;SDS011;4480;52.370;9.748;2022-08-27T10:15:13;8.67;;;3.43;;
8887;SDS011;4480;52.370;9.748;2022-08-27T10:17:44;5.77;;;3.03;;
8887;SDS011;4480;52.370;9.748;2022-08-27T10:20:19;4.80;;;2.90;;
8887;SDS011;4480;52.370;9.748;2022-08-27T10:22:54;6.83;;;2.70;;
8887;SDS011;4480;52.370;9.748;2022-08-27T10:25:32;8.83;;;2.90;;
8887;SDS011;4480;52.370;9.748;2022-08-27T10:28:10;4.97;;;2.63;;
8887;SDS011;4480;52.370;9.748;2022-08-27T10:30:53;9.83;;;2.83;;
8887;SDS011;4480;52.370;9.748;2022-08-27T10:33:36;6.07;;;2.93;;
8887;SDS011;4480;52.370;9.748;2022-08-27T10:36:14;7.30;;;3.40;;
8887;SDS011;4480;52.370;9.748;2022-08-27T10:38:52;11.40;;;3.50;;
8887;SDS011;4480;52.370;9.748;2022-08-27T10:41:28;4.63;;;2.70;;
8887;SDS011;4480;52.370;9.748;2022-08-27T10:44:07;9.27;;;2.80;;
8887;SDS011;4480;52.370;9.748;2022-08-27T10:47:03;7.83;;;2.70;;
8887;SDS011;4480;52.370;9.748;2022-08-27T10:49:41;4.33;;;2.30;;
8887;SDS011;4480;52.370;9.748;2022-08-27T10:52:16;4.40;;;2.27;;
8887;SDS011;4480;52.370;9.748;2022-08-27T10:54:49;4.87;;;2.37;;
8887;SDS011;4480;52.370;9.748;2022-08-27T10:57:22;6.10;;;2.40;;
8887;SDS011;4480;52.370;9.748;2022-08-27T10:59:58;3.70;;;2.17;;
8887;SDS011;4480;52.370;9.748;2022-08-27T11:02:33;4.57;;;2.60;;
8887;SDS011;4480;52.370;9.748;2022-08-27T11:05:05;7.00;;;2.10;;
8887;SDS011;4480;52.370;9.748;2022-08-27T11:07:41;3.70;;;2.03;;
8887;SDS011;4480;52.370;9.748;2022-08-27T11:10:13;3.77;;;2.30;;
8887;SDS011;4480;52.370;9.748;2022-08-27T11:12:46;5.53;;;2.27;;
8887;SDS011;4480;52.370;9.748;2022-08-27T11:15:18;4.50;;;2.50;;
8887;SDS011;4480;52.370;9.748;2022-08-27T11:17:51;5.53;;;2.30;;
8887;SDS011;4480;52.370;9.748;2022-08-27T11:20:23;10.63;;;2.30;;
8887;SDS011;4480;52.370;9.748;2022-08-27T11:22:55;6.00;;;2.47;;
8887;SDS011;4480;52.370;9.748;2022-08-27T11:25:33;4.40;;;2.90;;
8887;SDS011;4480;52.370;9.748;2022-08-27T11:28:08;2.80;;;2.00;;
8887;SDS011;4480;52.370;9.748;2022-08-27T11:30:39;5.40;;;2.00;;
8887;SDS011;4480;52.370;9.748;2022-08-27T11:33:21;4.70;;;2.23;;
8887;SDS011;4480;52.370;9.748;2022-08-27T11:36:05;15.13;;;2.90;;
8887;SDS011;4480;52.370;9.748;2022-08-27T11:38:46;3.50;;;2.50;;
8887;SDS011;4480;52.370;9.748;2022-08-27T11:41:26;5.93;;;2.57;;
8887;SDS011;4480;52.370;9.748;2022-08-27T11:44:13;5.60;;;2.43;;
8887;SDS011;4480;52.370;9.748;2022-08-27T11:46:41;4.00;;;2.40;;
8887;SDS011;4480;52.370;9.748;2022-08-27T11:49:19;4.57;;;2.13;;
8887;SDS011;4480;52.370;9.748;2022-08-27T11:51:55;3.73;;;2.27;;
8887;SDS011;4480;52.370;9.748;2022-08-27T11:54:26;4.80;;;2.50;;
8887;SDS011;4480;52.370;9.748;2022-08-27T11:56:55;6.80;;;2.63;;
8887;SDS011;4480;52.370;9.748;2022-08-27T11:59:29;5.13;;;2.50;;
8887;SDS011;4480;52.370;9.748;2022-08-27T12:02:09;6.13;;;2.37;;
8887;SDS011;4480;52.370;9.748;2022-08-27T12:04:46;3.43;;;2.70;;
8887;SDS011;4480;52.370;9.748;2022-08-27T12:07:27;4.03;;;3.03;;
8887;SDS011;4480;52.370;9.748;2022-08-27T12:10:17;16.13;;;2.80;;
8887;SDS011;4480;52.370;9.748;2022-08-27T12:12:55;3.80;;;2.10;;
8887;SDS011;4480;52.370;9.748;2022-08-27T12:15:34;6.20;;;2.60;;
8887;SDS011;4480;52.370;9.748;2022-08-27T12:18:15;6.83;;;2.80;;
8887;SDS011;4480;52.370;9.748;2022-08-27T12:21:10;5.67;;;2.90;;
8887;SDS011;4480;52.370;9.748;2022-08-27T12:23:47;4.93;;;3.03;;
8887;SDS011;4480;52.370;9.748;2022-08-27T12:26:36;5.00;;;3.10;;
8887;SDS011;4480;52.370;9.748;2022-08-27T12:29:19;5.10;;;3.47;;
8887;SDS011;4480;52.370;9.748;2022-08-27T12:31:50;9.17;;;3.00;;
8887;SDS011;4480;52.370;9.748;2022-08-27T12:34:21;6.70;;;2.60;;
8887;SDS011;4480;52.370;9.748;2022-08-27T12:36:53;3.13;;;2.37;;
8887;SDS011;4480;52.370;9.748;2022-08-27T12:39:23;6.10;;;2.53;;
8887;SDS011;4480;52.370;9.748;2022-08-27T12:41:55;7.43;;;3.40;;
8887;SDS011;4480;52.370;9.748;2022-08-27T12:44:23;7.13;;;2.30;;
8887;SDS011;4480;52.370;9.748;2022-08-27T12:46:52;7.93;;;2.33;;
8887;SDS011;4480;52.370;9.748;2022-08-27T12:49:25;8.33;;;2.50;;
8887;SDS011;4480;52.370;9.748;2022-08-27T12:51:57;5.97;;;3.17;;
8887;SDS011;4480;52.370;9.748;2022-08-27T12:54:32;5.33;;;2.70;;
8887;SDS011;4480;52.370;9.748;2022-08-27T12:57:06;3.07;;;2.30;;
8887;SDS011;4480;52.370;9.748;2022-08-27T12:59:42;7.67;;;2.80;;
8887;SDS011;4480;52.370;9.748;2022-08-27T13:02:27;3.47;;;2.33;;
8887;SDS011;4480;52.370;9.748;2022-08-27T13:05:05;6.73;;;3.10;;
8887;SDS011;4480;52.370;9.748;2022-08-27T13:07:38;8.53;;;2.70;;
8887;SDS011;4480;52.370;9.748;2022-08-27T13:10:07;5.83;;;2.63;;
8887;SDS011;4480;52.370;9.748;2022-08-27T13:12:37;6.47;;;2.07;;
8887;SDS011;4480;52.370;9.748;2022-08-27T13:15:05;4.70;;;3.03;;
8887;SDS011;4480;52.370;9.748;2022-08-27T13:17:35;5.37;;;2.50;;
8887;SDS011;4480;52.370;9.748;2022-08-27T13:20:10;7.37;;;2.97;;
8887;SDS011;4480;52.370;9.748;2022-08-27T13:22:42;6.67;;;3.20;;
8887;SDS011;4480;52.370;9.748;2022-08-27T13:25:20;10.20;;;3.60;;
8887;SDS011;4480;52.370;9.748;2022-08-27T13:27:53;5.60;;;3.27;;
8887;SDS011;4480;52.370;9.748;2022-08-27T13:30:23;6.10;;;3.00;;
8887;SDS011;4480;52.370;9.748;2022-08-27T13:32:53;4.70;;;2.87;;
8887;SDS011;4480;52.370;9.748;2022-08-27T13:35:21;7.17;;;3.10;;
8887;SDS011;4480;52.370;9.748;2022-08-27T13:37:51;6.10;;;3.20;;
8887;SDS011;4480;52.370;9.748;2022-08-27T13:40:23;8.63;;;3.67;;
8887;SDS011;4480;52.370;9.748;2022-08-27T13:42:53;5.43;;;3.47;;
8887;SDS011;4480;52.370;9.748;2022-08-27T13:45:21;7.40;;;3.60;;
8887;SDS011;4480;52.370;9.748;2022-08-27T13:47:48;6.13;;;3.30;;
8887;SDS011;4480;52.370;9.748;2022-08-27T13:50:20;6.53;;;3.60;;
8887;SDS011;4480;52.370;9.748;2022-08-27T13:52:50;6.03;;;3.40;;
8887;SDS011;4480;52.370;9.748;2022-08-27T13:55:37;7.60;;;3.50;;
8887;SDS011;4480;52.370;9.748;2022-08-27T13:58:12;5.50;;;3.47;;
8887;SDS011;4480;52.370;9.748;2022-08-27T14:00:43;12.90;;;3.40;;
8887;SDS011;4480;52.370;9.748;2022-08-27T14:03:30;6.73;;;3.60;;
8887;SDS011;4480;52.370;9.748;2022-08-27T14:05:59;8.60;;;4.00;;
8887;SDS011;4480;52.370;9.748;2022-08-27T14:08:29;4.83;;;3.13;;
8887;SDS011;4480;52.370;9.748;2022-08-27T14:11:01;5.60;;;3.53;;
8887;SDS011;4480;52.370;9.748;2022-08-27T14:13:36;5.47;;;3.33;;
8887;SDS011;4480;52.370;9.748;2022-08-27T14:16:11;6.77;;;3.40;;
8887;SDS011;4480;52.370;9.748;2022-08-27T14:18:48;5.17;;;3.50;;
8887;SDS011;4480;52.370;9.748;2022-08-27T14:21:18;8.53;;;2.97;;
8887;SDS011;4480;52.370;9.748;2022-08-27T14:23:47;4.20;;;2.53;;
8887;SDS011;4480;52.370;9.748;2022-08-27T14:26:14;8.83;;;3.70;;
8887;SDS011;4480;52.370;9.748;2022-08-27T14:28:42;9.43;;;2.97;;
8887;SDS011;4480;52.370;9.748;2022-08-27T14:31:10;10.70;;;3.10;;
8887;SDS011;4480;52.370;9.748;2022-08-27T14:33:38;5.60;;;2.40;;
8887;SDS011;4480;52.370;9.748;2022-08-27T14:36:05;8.40;;;2.67;;
8887;SDS011;4480;52.370;9.748;2022-08-27T14:38:35;8.97;;;3.30;;
8887;SDS011;4480;52.370;9.748;2022-08-27T14:41:05;7.73;;;2.67;;
8887;SDS011;4480;52.370;9.748;2022-08-27T14:43:32;5.70;;;3.40;;
8887;SDS011;4480;52.370;9.748;2022-08-27T14:46:00;6.47;;;2.63;;
8887;SDS011;4480;52.370;9.748;2022-08-27T14:48:28;5.30;;;2.83;;
8887;SDS011;4480;52.370;9.748;2022-08-27T14:50:58;7.17;;;3.10;;
8887;SDS011;4480;52.370;9.748;2022-08-27T14:53:28;6.30;;;3.13;;
8887;SDS011;4480;52.370;9.748;2022-08-27T14:55:55;8.60;;;3.43;;
8887;SDS011;4480;52.370;9.748;2022-08-27T14:58:27;6.23;;;2.63;;
8887;SDS011;4480;52.370;9.748;2022-08-27T15:00:54;14.53;;;4.50;;
8887;SDS011;4480;52.370;9.748;2022-08-27T15:03:22;8.53;;;2.90;;
8887;SDS011;4480;52.370;9.748;2022-08-27T15:05:50;9.13;;;3.00;;
8887;SDS011;4480;52.370;9.748;2022-08-27T15:08:19;7.13;;;3.10;;
8887;SDS011;4480;52.370;9.748;2022-08-27T15:10:47;6.07;;;2.60;;
8887;SDS011;4480;52.370;9.748;2022-08-27T15:13:15;6.30;;;3.00;;
8887;SDS011;4480;52.370;9.748;2022-08-27T15:15:44;5.77;;;2.93;;
8887;SDS011;4480;52.370;9.748;2022-08-27T15:18:11;10.43;;;3.83;;
8887;SDS011;4480;52.370;9.748;2022-08-27T15:20:39;10.17;;;3.33;;
8887;SDS011;4480;52.370;9.748;2022-08-27T15:23:07;10.50;;;3.60;;
8887;SDS011;4480;52.370;9.748;2022-08-27T15:25:37;7.13;;;3.33;;
8887;SDS011;4480;52.370;9.748;2022-08-27T15:28:05;7.07;;;3.30;;
8887;SDS011;4480;52.370;9.748;2022-08-27T15:30:32;8.77;;;3.63;;
8887;SDS011;4480;52.370;9.748;2022-08-27T15:33:02;10.30;;;4.07;;
8887;SDS011;4480;52.370;9.748;2022-08-27T15:35:30;8.33;;;3.13;;
8887;SDS011;4480;52.370;9.748;2022-08-27T15:37:58;6.60;;;2.77;;